Wetterdaten: Woche 10.10.16 - 16.10.16 (KW41)
Datum Zeit Temp. I. Temp. A. Feuchte I. Feuchte A. Luftdruck Regen Wind Richtung Sonnenschein UV Solar Taupunkt Windchill Windben
10.10.2016 00:00 23,3 C 0,9 C 52 % 91 % 1025,0 hPa 0,0 l/m 0,0 km/h (0 Bft) N 0,00 h 0,0 UV-I 0 W/m -0,4 C 0,9 C 0,0 km/h (0 Bft)
10.10.2016 01:00 23,2 C 0,2 C 53 % 92 % 1025,1 hPa 0,0 l/m 0,0 km/h (0 Bft) N 0,00 h 0,0 UV-I 0 W/m -0,9 C 0,2 C 0,0 km/h (0 Bft)
10.10.2016 02:00 23,1 C -0,2 C 53 % 92 % 1025,0 hPa 0,0 l/m 0,0 km/h (0 Bft) N 0,00 h 0,0 UV-I 0 W/m -1,3 C -0,2 C 0,0 km/h (0 Bft)
10.10.2016 03:00 23,1 C -0,6 C 53 % 93 % 1025,0 hPa 0,0 l/m 0,0 km/h (0 Bft) N 0,00 h 0,0 UV-I 0 W/m -1,5 C -0,6 C 0,0 km/h (0 Bft)
10.10.2016 04:00 23,2 C -0,9 C 53 % 93 % 1024,9 hPa 0,0 l/m 0,0 km/h (0 Bft) N 0,00 h 0,0 UV-I 0 W/m -1,9 C -0,9 C 0,0 km/h (0 Bft)
10.10.2016 05:00 23,1 C -1,2 C 54 % 94 % 1024,8 hPa 0,0 l/m 0,0 km/h (0 Bft) N 0,00 h 0,0 UV-I 0 W/m -2,1 C -1,2 C 0,0 km/h (0 Bft)
10.10.2016 06:00 23,1 C -1,5 C 54 % 94 % 1024,7 hPa 0,0 l/m 0,0 km/h (0 Bft) N 0,00 h 0,0 UV-I 0 W/m -2,4 C -1,5 C 0,0 km/h (0 Bft)
10.10.2016 07:00 23,0 C -1,7 C 54 % 94 % 1024,8 hPa 0,0 l/m 0,0 km/h (0 Bft) N 0,00 h 0,0 UV-I 15 W/m -2,5 C -1,7 C 0,0 km/h (0 Bft)
10.10.2016 08:00 23,1 C -1,1 C 55 % 95 % 1024,8 hPa 0,0 l/m 0,0 km/h (0 Bft) N 0,00 h 0,0 UV-I 64 W/m -1,8 C -1,1 C 0,0 km/h (0 Bft)
10.10.2016 09:00 23,2 C 2,0 C 54 % 96 % 1024,9 hPa 0,0 l/m 0,0 km/h (0 Bft) N 0,82 h 0,7 UV-I 261 W/m 1,4 C 2,0 C 0,0 km/h (0 Bft)
10.10.2016 10:00 23,2 C 5,7 C 54 % 89 % 1024,7 hPa 0,0 l/m 0,0 km/h (0 Bft) W-NW 0,97 h 1,4 UV-I 429 W/m 4,0 C 5,7 C 0,0 km/h (0 Bft)
10.10.2016 11:00 23,5 C 8,0 C 54 % 84 % 1024,3 hPa 0,0 l/m 0,3 km/h (0 Bft) W 0,85 h 1,8 UV-I 328 W/m 5,5 C 8,0 C 1,1 km/h (1 Bft)
10.10.2016 12:00 23,5 C 8,1 C 53 % 84 % 1024,1 hPa 0,0 l/m 1,8 km/h (1 Bft) N 0,60 h 1,4 UV-I 166 W/m 5,5 C 8,0 C 4,3 km/h (1 Bft)
10.10.2016 13:00 23,3 C 9,2 C 52 % 77 % 1023,5 hPa 0,0 l/m 3,5 km/h (1 Bft) N 0,90 h 2,0 UV-I 376 W/m 5,4 C 9,1 C 6,9 km/h (2 Bft)
10.10.2016 14:00 23,1 C 10,1 C 50 % 67 % 1023,0 hPa 0,0 l/m 0,0 km/h (0 Bft) N 0,85 h 1,6 UV-I 283 W/m 4,2 C 10,1 C 0,0 km/h (0 Bft)
10.10.2016 15:00 23,1 C 9,4 C 50 % 69 % 1022,5 hPa 0,0 l/m 0,0 km/h (0 Bft) N 0,00 h 0,8 UV-I 123 W/m 4,0 C 9,4 C 0,0 km/h (0 Bft)
10.10.2016 16:00 23,2 C 8,9 C 50 % 72 % 1022,2 hPa 0,0 l/m 0,4 km/h (0 Bft) O-NO 0,20 h 0,5 UV-I 130 W/m 4,2 C 8,9 C 1,3 km/h (1 Bft)
10.10.2016 17:00 23,2 C 8,4 C 49 % 73 % 1022,0 hPa 0,0 l/m 0,0 km/h (0 Bft) N 0,00 h 0,0 UV-I 52 W/m 3,9 C 8,4 C 0,0 km/h (0 Bft)
10.10.2016 18:00 23,3 C 7,5 C 49 % 79 % 1021,8 hPa 0,0 l/m 0,0 km/h (0 Bft) N 0,00 h 0,0 UV-I 11 W/m 4,1 C 7,5 C 0,0 km/h (0 Bft)
10.10.2016 19:00 23,4 C 6,0 C 50 % 83 % 1021,9 hPa 0,0 l/m 0,0 km/h (0 Bft) N 0,00 h 0,0 UV-I 0 W/m 3,3 C 6,0 C 0,0 km/h (0 Bft)
10.10.2016 20:00 23,3 C 4,4 C 51 % 86 % 1022,2 hPa 0,0 l/m 0,0 km/h (0 Bft) N 0,00 h 0,0 UV-I 0 W/m 2,4 C 4,4 C 0,0 km/h (0 Bft)
10.10.2016 21:00 23,2 C 3,1 C 51 % 88 % 1022,5 hPa 0,0 l/m 0,0 km/h (0 Bft) N 0,00 h 0,0 UV-I 0 W/m 1,3 C 3,1 C 0,0 km/h (0 Bft)
10.10.2016 22:00 23,4 C 2,4 C 52 % 90 % 1022,3 hPa 0,0 l/m 0,0 km/h (0 Bft) N 0,00 h 0,0 UV-I 0 W/m 0,9 C 2,4 C 0,0 km/h (0 Bft)
10.10.2016 23:00 23,3 C 1,8 C 50 % 91 % 1022,1 hPa 0,0 l/m 0,0 km/h (0 Bft) N 0,00 h 0,0 UV-I 0 W/m 0,5 C 1,8 C 0,0 km/h (0 Bft)
11.10.2016 00:00 23,1 C 1,2 C 51 % 91 % 1022,0 hPa 0,0 l/m 0,0 km/h (0 Bft) N 0,00 h 0,0 UV-I 0 W/m -0,0 C 1,2 C 0,0 km/h (0 Bft)
11.10.2016 01:00 23,0 C 0,9 C 51 % 93 % 1021,7 hPa 0,0 l/m 0,0 km/h (0 Bft) N 0,00 h 0,0 UV-I 0 W/m -0,2 C 0,9 C 0,0 km/h (0 Bft)
11.10.2016 02:00 23,0 C 0,9 C 52 % 93 % 1021,2 hPa 0,0 l/m 0,0 km/h (0 Bft) N 0,00 h 0,0 UV-I 0 W/m -0,1 C 0,9 C 0,0 km/h (0 Bft)
11.10.2016 03:00 23,2 C 1,1 C 53 % 94 % 1020,9 hPa 0,0 l/m 0,0 km/h (0 Bft) N 0,00 h 0,0 UV-I 0 W/m 0,2 C 1,1 C 0,0 km/h (0 Bft)
11.10.2016 04:00 23,2 C 1,5 C 54 % 94 % 1020,4 hPa 0,0 l/m 0,0 km/h (0 Bft) N 0,00 h 0,0 UV-I 0 W/m 0,6 C 1,5 C 0,0 km/h (0 Bft)
11.10.2016 05:00 23,5 C 1,8 C 53 % 95 % 1020,1 hPa 0,0 l/m 0,0 km/h (0 Bft) N 0,00 h 0,0 UV-I 0 W/m 1,0 C 1,8 C 0,0 km/h (0 Bft)
11.10.2016 06:00 23,6 C 2,1 C 53 % 95 % 1019,8 hPa 0,0 l/m 0,0 km/h (0 Bft) N 0,00 h 0,0 UV-I 0 W/m 1,4 C 2,1 C 0,0 km/h (0 Bft)
11.10.2016 07:00 23,4 C 2,4 C 54 % 95 % 1019,6 hPa 0,0 l/m 0,0 km/h (0 Bft) N 0,00 h 0,0 UV-I 5 W/m 1,6 C 2,4 C 0,0 km/h (0 Bft)
11.10.2016 08:00 23,5 C 3,1 C 54 % 96 % 1019,5 hPa 0,0 l/m 0,8 km/h (0 Bft) N 0,00 h 0,0 UV-I 12 W/m 2,5 C 3,1 C 1,8 km/h (1 Bft)
11.10.2016 09:00 23,3 C 4,2 C 54 % 96 % 1019,5 hPa 0,0 l/m 2,4 km/h (1 Bft) N-NW 0,00 h 0,0 UV-I 30 W/m 3,7 C 4,2 C 4,7 km/h (1 Bft)
11.10.2016 10:00 23,1 C 5,4 C 54 % 95 % 1019,4 hPa 0,0 l/m 2,8 km/h (1 Bft) N-NO 0,00 h 0,7 UV-I 97 W/m 4,7 C 5,2 C 5,0 km/h (1 Bft)
11.10.2016 11:00 23,2 C 6,9 C 53 % 89 % 1019,1 hPa 0,0 l/m 5,0 km/h (1 Bft) N-NO 0,97 h 1,1 UV-I 182 W/m 5,2 C 6,4 C 8,8 km/h (2 Bft)
11.10.2016 12:00 23,1 C 7,7 C 53 % 84 % 1018,8 hPa 0,0 l/m 4,3 km/h (1 Bft) N-NO 0,62 h 1,1 UV-I 153 W/m 5,1 C 7,4 C 8,3 km/h (2 Bft)
11.10.2016 13:00 23,1 C 6,5 C 53 % 86 % 1018,6 hPa 0,2 l/m 1,3 km/h (1 Bft) O-NO 0,08 h 0,8 UV-I 93 W/m 4,3 C 6,5 C 3,1 km/h (1 Bft)
11.10.2016 14:00 23,1 C 7,6 C 53 % 83 % 1018,0 hPa 0,0 l/m 0,0 km/h (0 Bft) N 0,82 h 1,2 UV-I 223 W/m 4,9 C 7,6 C 0,0 km/h (0 Bft)
11.10.2016 15:00 23,1 C 7,9 C 54 % 79 % 1017,6 hPa 0,0 l/m 0,8 km/h (0 Bft) N 0,00 h 0,6 UV-I 89 W/m 4,5 C 7,9 C 1,6 km/h (1 Bft)
11.10.2016 16:00 23,3 C 7,8 C 54 % 78 % 1017,6 hPa 0,4 l/m 4,7 km/h (1 Bft) N 0,12 h 0,7 UV-I 81 W/m 4,2 C 7,0 C 8,4 km/h (2 Bft)
11.10.2016 17:00 23,3 C 6,2 C 54 % 90 % 1017,7 hPa 0,8 l/m 6,4 km/h (2 Bft) N-NW 0,00 h 0,0 UV-I 11 W/m 4,6 C 5,3 C 9,0 km/h (2 Bft)
11.10.2016 18:00 23,3 C 5,8 C 55 % 92 % 1017,7 hPa 0,0 l/m 5,6 km/h (1 Bft) N 0,00 h 0,0 UV-I 7 W/m 4,6 C 5,6 C 8,7 km/h (2 Bft)
11.10.2016 19:00 23,3 C 5,3 C 55 % 92 % 1017,9 hPa 0,0 l/m 4,7 km/h (1 Bft) N 0,00 h 0,0 UV-I 0 W/m 4,1 C 5,2 C 7,4 km/h (2 Bft)
11.10.2016 20:00 23,3 C 4,8 C 55 % 92 % 1018,1 hPa 0,0 l/m 4,8 km/h (1 Bft) N 0,00 h 0,0 UV-I 0 W/m 3,7 C 4,6 C 7,4 km/h (2 Bft)
11.10.2016 21:00 23,3 C 4,6 C 55 % 93 % 1018,2 hPa 0,0 l/m 3,1 km/h (1 Bft) N 0,00 h 0,0 UV-I 0 W/m 3,5 C 4,5 C 5,4 km/h (1 Bft)
11.10.2016 22:00 23,4 C 4,4 C 55 % 93 % 1018,3 hPa 0,0 l/m 1,5 km/h (1 Bft) N 0,00 h 0,0 UV-I 0 W/m 3,3 C 4,4 C 2,7 km/h (1 Bft)
11.10.2016 23:00 23,3 C 4,2 C 54 % 94 % 1018,2 hPa 0,0 l/m 1,5 km/h (1 Bft) N 0,00 h 0,0 UV-I 0 W/m 3,3 C 4,2 C 2,8 km/h (1 Bft)
12.10.2016 00:00 23,3 C 3,9 C 54 % 93 % 1018,2 hPa 0,0 l/m 0,0 km/h (0 Bft) N 0,00 h 0,0 UV-I 0 W/m 2,8 C 3,9 C 0,0 km/h (0 Bft)
12.10.2016 01:00 23,2 C 3,4 C 54 % 93 % 1018,1 hPa 0,0 l/m 0,0 km/h (0 Bft) N 0,00 h 0,0 UV-I 0 W/m 2,4 C 3,4 C 0,0 km/h (0 Bft)
12.10.2016 02:00 23,1 C 3,1 C 55 % 94 % 1017,9 hPa 0,0 l/m 0,0 km/h (0 Bft) N 0,00 h 0,0 UV-I 0 W/m 2,2 C 3,1 C 0,0 km/h (0 Bft)
12.10.2016 03:00 23,1 C 3,0 C 55 % 94 % 1017,8 hPa 0,2 l/m 0,0 km/h (0 Bft) N 0,00 h 0,0 UV-I 0 W/m 2,2 C 3,0 C 0,0 km/h (0 Bft)
12.10.2016 04:00 23,0 C 2,9 C 55 % 94 % 1017,6 hPa 0,0 l/m 0,0 km/h (0 Bft) N 0,00 h 0,0 UV-I 0 W/m 2,1 C 2,9 C 0,0 km/h (0 Bft)
12.10.2016 05:00 22,9 C 2,7 C 55 % 95 % 1017,8 hPa 0,0 l/m 0,0 km/h (0 Bft) N 0,00 h 0,0 UV-I 0 W/m 1,9 C 2,7 C 0,1 km/h (0 Bft)
12.10.2016 06:00 22,9 C 2,3 C 55 % 95 % 1017,8 hPa 0,0 l/m 0,1 km/h (0 Bft) O-NO 0,00 h 0,0 UV-I 0 W/m 1,6 C 2,3 C 0,2 km/h (0 Bft)
12.10.2016 07:00 22,9 C 2,2 C 56 % 95 % 1017,8 hPa 0,0 l/m 0,1 km/h (0 Bft) O-NO 0,00 h 0,0 UV-I 12 W/m 1,5 C 2,2 C 0,2 km/h (0 Bft)
12.10.2016 08:00 23,0 C 2,6 C 55 % 96 % 1018,1 hPa 0,0 l/m 0,1 km/h (0 Bft) O 0,00 h 0,0 UV-I 28 W/m 2,0 C 2,6 C 0,2 km/h (0 Bft)
12.10.2016 09:00 23,2 C 4,0 C 55 % 97 % 1018,3 hPa 0,0 l/m 0,7 km/h (0 Bft) W-NW 0,00 h 0,6 UV-I 81 W/m 3,5 C 4,0 C 1,7 km/h (1 Bft)
12.10.2016 10:00 23,2 C 5,4 C 55 % 97 % 1018,5 hPa 0,0 l/m 0,3 km/h (0 Bft) N 0,00 h 0,6 UV-I 70 W/m 4,9 C 5,4 C 1,1 km/h (0 Bft)
12.10.2016 11:00 23,3 C 6,7 C 55 % 93 % 1018,7 hPa 0,0 l/m 2,0 km/h (1 Bft) N 0,65 h 1,0 UV-I 158 W/m 5,7 C 6,7 C 4,1 km/h (1 Bft)
12.10.2016 12:00 23,2 C 7,5 C 54 % 87 % 1018,8 hPa 0,0 l/m 3,8 km/h (1 Bft) N 0,40 h 0,9 UV-I 146 W/m 5,5 C 7,3 C 6,5 km/h (2 Bft)
12.10.2016 13:00 23,2 C 7,2 C 55 % 87 % 1018,9 hPa 0,0 l/m 1,2 km/h (1 Bft) N-NO 0,17 h 0,7 UV-I 103 W/m 5,2 C 7,2 C 2,8 km/h (1 Bft)
12.10.2016 14:00 23,2 C 7,4 C 56 % 84 % 1019,0 hPa 0,0 l/m 0,0 km/h (0 Bft) N 0,15 h 0,7 UV-I 102 W/m 4,9 C 7,4 C 0,1 km/h (0 Bft)
12.10.2016 15:00 23,3 C 7,5 C 56 % 86 % 1019,0 hPa 0,0 l/m 0,2 km/h (0 Bft) N-NO 0,00 h 0,0 UV-I 32 W/m 5,3 C 7,5 C 0,5 km/h (0 Bft)
12.10.2016 16:00 23,3 C 7,3 C 57 % 85 % 1018,9 hPa 0,0 l/m 0,2 km/h (0 Bft) O 0,00 h 0,0 UV-I 33 W/m 5,0 C 7,3 C 0,9 km/h (0 Bft)
12.10.2016 17:00 23,4 C 7,3 C 57 % 86 % 1019,1 hPa 0,0 l/m 1,7 km/h (1 Bft) N 0,00 h 0,0 UV-I 16 W/m 5,1 C 7,2 C 3,3 km/h (1 Bft)
12.10.2016 18:00 23,6 C 6,9 C 57 % 88 % 1019,2 hPa 0,0 l/m 2,5 km/h (1 Bft) N 0,00 h 0,0 UV-I 0 W/m 5,0 C 6,9 C 4,6 km/h (1 Bft)
12.10.2016 19:00 23,5 C 6,2 C 57 % 88 % 1019,4 hPa 0,0 l/m 1,9 km/h (1 Bft) N 0,00 h 0,0 UV-I 0 W/m 4,3 C 6,2 C 3,7 km/h (1 Bft)
12.10.2016 20:00 23,3 C 5,6 C 57 % 90 % 1019,8 hPa 0,0 l/m 0,6 km/h (0 Bft) O-NO 0,00 h 0,0 UV-I 0 W/m 4,1 C 5,6 C 1,7 km/h (1 Bft)
12.10.2016 21:00 23,3 C 5,6 C 57 % 92 % 1020,0 hPa 0,0 l/m 1,0 km/h (0 Bft) O-NO 0,00 h 0,0 UV-I 0 W/m 4,3 C 5,6 C 2,7 km/h (1 Bft)
12.10.2016 22:00 23,5 C 5,6 C 56 % 92 % 1020,1 hPa 0,0 l/m 0,2 km/h (0 Bft) O-NO 0,00 h 0,0 UV-I 0 W/m 4,4 C 5,6 C 0,7 km/h (0 Bft)
12.10.2016 23:00 23,3 C 5,6 C 55 % 93 % 1020,2 hPa 0,0 l/m 0,4 km/h (0 Bft) NO 0,00 h 0,0 UV-I 0 W/m 4,6 C 5,6 C 1,3 km/h (1 Bft)
13.10.2016 00:00 23,2 C 5,6 C 56 % 92 % 1019,9 hPa 0,0 l/m 0,7 km/h (0 Bft) N-NO 0,00 h 0,0 UV-I 0 W/m 4,4 C 5,6 C 1,6 km/h (1 Bft)
13.10.2016 01:00 23,2 C 5,5 C 56 % 92 % 1019,7 hPa 0,0 l/m 1,3 km/h (1 Bft) N 0,00 h 0,0 UV-I 0 W/m 4,3 C 5,5 C 2,3 km/h (1 Bft)
13.10.2016 02:00 23,1 C 5,5 C 56 % 92 % 1019,6 hPa 0,0 l/m 3,4 km/h (1 Bft) N-NO 0,00 h 0,0 UV-I 0 W/m 4,3 C 5,5 C 6,3 km/h (2 Bft)
13.10.2016 03:00 23,3 C 5,4 C 57 % 92 % 1019,3 hPa 0,0 l/m 1,4 km/h (1 Bft) N-NO 0,00 h 0,0 UV-I 0 W/m 4,2 C 5,4 C 2,9 km/h (1 Bft)
13.10.2016 04:00 23,3 C 5,5 C 58 % 92 % 1019,1 hPa 0,0 l/m 1,5 km/h (1 Bft) O-NO 0,00 h 0,0 UV-I 0 W/m 4,3 C 5,5 C 3,5 km/h (1 Bft)
13.10.2016 05:00 23,3 C 5,7 C 58 % 92 % 1019,1 hPa 0,0 l/m 1,7 km/h (1 Bft) O-NO 0,00 h 0,0 UV-I 0 W/m 4,5 C 5,7 C 3,7 km/h (1 Bft)
13.10.2016 06:00 23,4 C 5,8 C 58 % 92 % 1018,9 hPa 0,0 l/m 3,6 km/h (1 Bft) O-NO 0,00 h 0,0 UV-I 0 W/m 4,6 C 5,7 C 7,2 km/h (2 Bft)
13.10.2016 07:00 23,5 C 5,8 C 58 % 92 % 1018,5 hPa 0,0 l/m 3,9 km/h (1 Bft) O-NO 0,00 h 0,0 UV-I 5 W/m 4,5 C 5,7 C 8,1 km/h (2 Bft)
13.10.2016 08:00 23,3 C 5,8 C 57 % 92 % 1018,6 hPa 0,0 l/m 3,4 km/h (1 Bft) O-NO 0,00 h 0,0 UV-I 16 W/m 4,6 C 5,7 C 7,8 km/h (2 Bft)
13.10.2016 09:00 23,2 C 5,9 C 56 % 92 % 1018,7 hPa 0,0 l/m 4,0 km/h (1 Bft) O-NO 0,00 h 0,0 UV-I 28 W/m 4,7 C 5,8 C 8,9 km/h (2 Bft)
13.10.2016 10:00 23,2 C 6,2 C 56 % 93 % 1018,7 hPa 0,0 l/m 5,0 km/h (1 Bft) O-NO 0,00 h 0,5 UV-I 57 W/m 5,1 C 5,7 C 10,7 km/h (2 Bft)
13.10.2016 11:00 22,8 C 6,4 C 53 % 92 % 1018,5 hPa 0,0 l/m 3,3 km/h (1 Bft) O 0,00 h 0,6 UV-I 67 W/m 5,2 C 6,3 C 8,1 km/h (2 Bft)
13.10.2016 12:00 22,8 C 6,8 C 52 % 90 % 1018,1 hPa 0,0 l/m 2,7 km/h (1 Bft) O 0,00 h 0,6 UV-I 74 W/m 5,3 C 6,8 C 5,1 km/h (1 Bft)
13.10.2016 13:00 23,2 C 7,2 C 53 % 88 % 1017,4 hPa 0,0 l/m 4,4 km/h (1 Bft) O-NO 0,00 h 0,6 UV-I 76 W/m 5,3 C 6,8 C 8,2 km/h (2 Bft)
13.10.2016 14:00 23,4 C 7,8 C 54 % 85 % 1017,0 hPa 0,0 l/m 5,3 km/h (1 Bft) O-NO 0,20 h 0,8 UV-I 120 W/m 5,5 C 7,3 C 11,0 km/h (2 Bft)
13.10.2016 15:00 23,5 C 8,0 C 54 % 83 % 1016,8 hPa 0,0 l/m 4,3 km/h (1 Bft) O-NO 0,10 h 0,7 UV-I 105 W/m 5,3 C 7,5 C 10,8 km/h (2 Bft)
13.10.2016 16:00 23,4 C 7,9 C 54 % 81 % 1016,5 hPa 0,0 l/m 3,4 km/h (1 Bft) O-NO 0,00 h 0,6 UV-I 53 W/m 4,9 C 7,7 C 8,2 km/h (2 Bft)
13.10.2016 17:00 23,4 C 7,5 C 54 % 83 % 1016,3 hPa 0,0 l/m 4,2 km/h (1 Bft) O-NO 0,00 h 0,0 UV-I 16 W/m 4,8 C 7,3 C 9,6 km/h (2 Bft)
13.10.2016 18:00 23,5 C 7,1 C 54 % 85 % 1016,2 hPa 0,0 l/m 4,3 km/h (1 Bft) O-NO 0,00 h 0,0 UV-I 0 W/m 4,8 C 6,7 C 10,0 km/h (2 Bft)
13.10.2016 19:00 23,5 C 6,7 C 54 % 84 % 1016,3 hPa 0,0 l/m 5,7 km/h (1 Bft) O-NO 0,00 h 0,0 UV-I 0 W/m 4,2 C 5,9 C 12,1 km/h (2 Bft)
13.10.2016 20:00 23,4 C 6,5 C 55 % 84 % 1016,0 hPa 0,0 l/m 5,9 km/h (2 Bft) O-NO 0,00 h 0,0 UV-I 0 W/m 3,9 C 5,7 C 12,1 km/h (2 Bft)
13.10.2016 21:00 23,5 C 6,0 C 55 % 84 % 1015,7 hPa 0,0 l/m 4,4 km/h (1 Bft) O 0,00 h 0,0 UV-I 0 W/m 3,4 C 5,6 C 10,5 km/h (2 Bft)
13.10.2016 22:00 23,8 C 5,7 C 54 % 85 % 1015,6 hPa 0,0 l/m 3,1 km/h (1 Bft) O-SO 0,00 h 0,0 UV-I 0 W/m 3,4 C 5,5 C 7,5 km/h (2 Bft)
13.10.2016 23:00 23,8 C 5,7 C 53 % 86 % 1015,5 hPa 0,0 l/m 4,1 km/h (1 Bft) O-SO 0,00 h 0,0 UV-I 0 W/m 3,6 C 5,5 C 9,4 km/h (2 Bft)
14.10.2016 00:00 23,6 C 5,9 C 54 % 87 % 1015,2 hPa 0,0 l/m 4,9 km/h (1 Bft) O-SO 0,00 h 0,0 UV-I 0 W/m 3,9 C 5,4 C 11,8 km/h (2 Bft)
14.10.2016 01:00 23,4 C 6,0 C 54 % 87 % 1014,9 hPa 0,0 l/m 5,6 km/h (1 Bft) O-SO 0,00 h 0,0 UV-I 0 W/m 4,0 C 5,5 C 12,5 km/h (3 Bft)
14.10.2016 02:00 23,4 C 6,0 C 54 % 87 % 1014,8 hPa 0,0 l/m 4,5 km/h (1 Bft) O 0,00 h 0,0 UV-I 0 W/m 4,0 C 5,7 C 10,2 km/h (2 Bft)
14.10.2016 03:00 23,4 C 6,1 C 54 % 87 % 1014,5 hPa 0,0 l/m 4,3 km/h (1 Bft) O-SO 0,00 h 0,0 UV-I 0 W/m 4,2 C 5,9 C 10,6 km/h (2 Bft)
14.10.2016 04:00 23,6 C 6,1 C 56 % 88 % 1014,0 hPa 0,0 l/m 6,3 km/h (2 Bft) O 0,00 h 0,0 UV-I 0 W/m 4,3 C 5,2 C 12,1 km/h (2 Bft)
14.10.2016 05:00 23,7 C 6,2 C 56 % 89 % 1013,5 hPa 0,0 l/m 4,5 km/h (1 Bft) O 0,00 h 0,0 UV-I 0 W/m 4,5 C 5,8 C 10,7 km/h (2 Bft)
14.10.2016 06:00 23,7 C 6,3 C 56 % 89 % 1013,4 hPa 0,0 l/m 4,7 km/h (1 Bft) O-SO 0,00 h 0,0 UV-I 0 W/m 4,6 C 6,0 C 10,7 km/h (2 Bft)
14.10.2016 07:00 23,6 C 6,4 C 56 % 89 % 1012,9 hPa 0,0 l/m 7,0 km/h (2 Bft) O 0,00 h 0,0 UV-I 8 W/m 4,8 C 5,2 C 13,1 km/h (3 Bft)
14.10.2016 08:00 23,5 C 6,7 C 55 % 89 % 1012,9 hPa 0,0 l/m 6,9 km/h (2 Bft) O 0,00 h 0,0 UV-I 37 W/m 5,0 C 5,5 C 14,5 km/h (3 Bft)
14.10.2016 09:00 23,3 C 7,2 C 54 % 88 % 1013,3 hPa 0,0 l/m 4,5 km/h (1 Bft) O 0,00 h 0,6 UV-I 95 W/m 5,3 C 6,8 C 10,7 km/h (2 Bft)
14.10.2016 10:00 23,3 C 7,9 C 54 % 86 % 1013,2 hPa 0,0 l/m 7,0 km/h (2 Bft) O-NO 0,75 h 1,2 UV-I 183 W/m 5,7 C 6,7 C 14,5 km/h (3 Bft)
14.10.2016 11:00 23,3 C 8,5 C 54 % 84 % 1013,5 hPa 0,0 l/m 7,5 km/h (2 Bft) O-NO 0,97 h 1,5 UV-I 231 W/m 6,0 C 7,1 C 15,3 km/h (3 Bft)
14.10.2016 12:00 23,5 C 8,6 C 54 % 85 % 1013,0 hPa 0,0 l/m 7,8 km/h (2 Bft) O-NO 1,00 h 1,8 UV-I 272 W/m 6,2 C 7,0 C 15,7 km/h (3 Bft)
14.10.2016 13:00 23,4 C 10,2 C 53 % 80 % 1012,4 hPa 0,0 l/m 10,4 km/h (2 Bft) O 1,00 h 2,4 UV-I 458 W/m 7,0 C 7,6 C 19,8 km/h (3 Bft)
14.10.2016 14:00 23,2 C 9,8 C 49 % 82 % 1011,9 hPa 0,0 l/m 9,0 km/h (2 Bft) O 1,00 h 1,7 UV-I 316 W/m 6,8 C 7,9 C 18,3 km/h (3 Bft)
14.10.2016 15:00 23,0 C 9,2 C 47 % 83 % 1011,9 hPa 0,0 l/m 7,8 km/h (2 Bft) O-NO 0,57 h 1,0 UV-I 168 W/m 6,5 C 7,5 C 15,9 km/h (3 Bft)
14.10.2016 16:00 23,0 C 8,7 C 47 % 85 % 1011,3 hPa 0,0 l/m 9,8 km/h (2 Bft) O-SO 0,00 h 0,6 UV-I 114 W/m 6,3 C 6,2 C 18,5 km/h (3 Bft)
14.10.2016 17:00 23,6 C 8,3 C 48 % 87 % 1011,4 hPa 0,0 l/m 10,0 km/h (2 Bft) O-NO 0,00 h 0,0 UV-I 42 W/m 6,2 C 5,7 C 16,5 km/h (3 Bft)
14.10.2016 18:00 23,9 C 7,9 C 49 % 88 % 1011,3 hPa 0,0 l/m 8,4 km/h (2 Bft) O-NO 0,00 h 0,0 UV-I 5 W/m 6,1 C 6,0 C 16,5 km/h (3 Bft)
14.10.2016 19:00 23,9 C 7,8 C 49 % 90 % 1010,6 hPa 0,0 l/m 10,5 km/h (2 Bft) O 0,00 h 0,0 UV-I 0 W/m 6,2 C 4,8 C 20,3 km/h (4 Bft)
14.10.2016 20:00 23,9 C 8,2 C 51 % 90 % 1010,6 hPa 0,0 l/m 7,0 km/h (2 Bft) O-NO 0,00 h 0,0 UV-I 0 W/m 6,6 C 6,9 C 15,7 km/h (3 Bft)
14.10.2016 21:00 23,9 C 8,6 C 51 % 90 % 1009,9 hPa 0,0 l/m 4,0 km/h (1 Bft) O-NO 0,00 h 0,0 UV-I 0 W/m 7,1 C 8,2 C 9,1 km/h (2 Bft)
14.10.2016 22:00 24,0 C 8,8 C 51 % 90 % 1009,7 hPa 0,0 l/m 8,3 km/h (2 Bft) O-NO 0,00 h 0,0 UV-I 0 W/m 7,2 C 7,2 C 14,1 km/h (3 Bft)
14.10.2016 23:00 23,8 C 8,7 C 51 % 90 % 1009,1 hPa 0,0 l/m 9,5 km/h (2 Bft) O 0,00 h 0,0 UV-I 0 W/m 7,2 C 6,4 C 17,6 km/h (3 Bft)
15.10.2016 00:00 23,5 C 8,6 C 51 % 90 % 1008,7 hPa 0,0 l/m 8,7 km/h (2 Bft) O-NO 0,00 h 0,0 UV-I 0 W/m 7,0 C 6,7 C 16,2 km/h (3 Bft)
15.10.2016 01:00 23,4 C 8,5 C 52 % 90 % 1009,3 hPa 0,0 l/m 4,4 km/h (1 Bft) O-SO 0,00 h 0,0 UV-I 0 W/m 7,0 C 8,1 C 9,9 km/h (2 Bft)
15.10.2016 02:00 23,3 C 8,4 C 52 % 91 % 1009,4 hPa 0,0 l/m 3,6 km/h (1 Bft) O 0,00 h 0,0 UV-I 0 W/m 7,0 C 8,2 C 8,9 km/h (2 Bft)
15.10.2016 03:00 23,5 C 8,2 C 53 % 91 % 1008,9 hPa 0,0 l/m 4,7 km/h (1 Bft) O 0,00 h 0,0 UV-I 0 W/m 6,8 C 7,9 C 10,1 km/h (2 Bft)
15.10.2016 04:00 23,6 C 8,0 C 54 % 92 % 1009,1 hPa 0,0 l/m 4,5 km/h (1 Bft) O-NO 0,00 h 0,0 UV-I 0 W/m 6,8 C 7,9 C 10,4 km/h (2 Bft)
15.10.2016 05:00 23,7 C 7,9 C 54 % 92 % 1009,5 hPa 0,0 l/m 3,8 km/h (1 Bft) O-NO 0,00 h 0,0 UV-I 0 W/m 6,7 C 7,8 C 8,1 km/h (2 Bft)
15.10.2016 06:00 23,7 C 7,8 C 55 % 93 % 1010,2 hPa 0,0 l/m 0,8 km/h (0 Bft) O 0,00 h 0,0 UV-I 0 W/m 6,7 C 7,8 C 2,1 km/h (1 Bft)
15.10.2016 07:00 23,7 C 7,6 C 55 % 92 % 1010,7 hPa 0,0 l/m 0,0 km/h (0 Bft) N 0,00 h 0,0 UV-I 5 W/m 6,4 C 7,6 C 0,0 km/h (0 Bft)
15.10.2016 08:00 23,6 C 7,5 C 54 % 94 % 1011,5 hPa 0,0 l/m 0,0 km/h (0 Bft) N 0,00 h 0,0 UV-I 30 W/m 6,5 C 7,5 C 0,0 km/h (0 Bft)
15.10.2016 09:00 23,6 C 8,1 C 54 % 95 % 1012,3 hPa 0,0 l/m 0,0 km/h (0 Bft) N 0,00 h 0,6 UV-I 75 W/m 7,2 C 8,1 C 0,0 km/h (0 Bft)
15.10.2016 10:00 23,7 C 9,1 C 54 % 93 % 1013,3 hPa 0,0 l/m 0,0 km/h (0 Bft) N 0,05 h 0,7 UV-I 112 W/m 7,9 C 9,1 C 0,0 km/h (0 Bft)
15.10.2016 11:00 23,7 C 11,7 C 54 % 85 % 1013,9 hPa 0,0 l/m 0,3 km/h (0 Bft) S 1,00 h 1,8 UV-I 374 W/m 9,3 C 11,7 C 1,4 km/h (1 Bft)
15.10.2016 12:00 23,6 C 14,7 C 53 % 77 % 1014,4 hPa 0,0 l/m 0,8 km/h (0 Bft) W-SW 1,00 h 2,0 UV-I 362 W/m 10,6 C 14,7 C 2,3 km/h (1 Bft)
15.10.2016 13:00 23,6 C 15,3 C 53 % 75 % 1014,6 hPa 0,0 l/m 2,1 km/h (1 Bft) S 1,00 h 1,8 UV-I 301 W/m 10,9 C 15,3 C 4,7 km/h (1 Bft)
15.10.2016 14:00 23,8 C 15,2 C 54 % 74 % 1014,9 hPa 0,0 l/m 3,7 km/h (1 Bft) W-SW 0,38 h 1,1 UV-I 152 W/m 10,5 C 15,2 C 7,6 km/h (2 Bft)
15.10.2016 15:00 23,9 C 14,5 C 54 % 78 % 1015,4 hPa 0,0 l/m 0,1 km/h (0 Bft) W-SW 0,00 h 0,6 UV-I 82 W/m 10,7 C 14,5 C 0,7 km/h (0 Bft)
15.10.2016 16:00 23,8 C 14,0 C 55 % 82 % 1015,8 hPa 0,0 l/m 0,0 km/h (0 Bft) N 0,00 h 0,0 UV-I 48 W/m 10,9 C 14,0 C 0,0 km/h (0 Bft)
15.10.2016 17:00 23,9 C 13,6 C 55 % 83 % 1016,2 hPa 0,0 l/m 0,0 km/h (0 Bft) N 0,00 h 0,0 UV-I 24 W/m 10,8 C 13,6 C 0,0 km/h (0 Bft)
15.10.2016 18:00 24,0 C 13,3 C 56 % 84 % 1016,8 hPa 0,0 l/m 0,0 km/h (0 Bft) N 0,00 h 0,0 UV-I 5 W/m 10,7 C 13,3 C 0,0 km/h (0 Bft)
15.10.2016 19:00 24,1 C 12,4 C 57 % 87 % 1017,6 hPa 0,0 l/m 0,0 km/h (0 Bft) N 0,00 h 0,0 UV-I 0 W/m 10,4 C 12,4 C 0,0 km/h (0 Bft)
15.10.2016 20:00 24,1 C 11,7 C 56 % 89 % 1018,1 hPa 0,0 l/m 0,0 km/h (0 Bft) N 0,00 h 0,0 UV-I 0 W/m 9,9 C 11,7 C 0,0 km/h (0 Bft)
15.10.2016 21:00 24,2 C 10,9 C 56 % 90 % 1018,6 hPa 0,0 l/m 0,0 km/h (0 Bft) N 0,00 h 0,0 UV-I 0 W/m 9,4 C 10,9 C 0,0 km/h (0 Bft)
15.10.2016 22:00 24,2 C 10,3 C 56 % 92 % 1019,1 hPa 0,0 l/m 0,0 km/h (0 Bft) N 0,00 h 0,0 UV-I 0 W/m 9,2 C 10,3 C 0,0 km/h (0 Bft)
15.10.2016 23:00 24,1 C 10,1 C 56 % 93 % 1019,5 hPa 0,0 l/m 0,0 km/h (0 Bft) N 0,00 h 0,0 UV-I 0 W/m 9,0 C 10,1 C 0,0 km/h (0 Bft)
16.10.2016 00:00 23,8 C 9,1 C 56 % 92 % 1019,8 hPa 0,0 l/m 0,0 km/h (0 Bft) N 0,00 h 0,0 UV-I 0 W/m 7,9 C 9,1 C 0,0 km/h (0 Bft)
16.10.2016 01:00 23,7 C 7,8 C 56 % 92 % 1020,3 hPa 0,0 l/m 0,0 km/h (0 Bft) N 0,00 h 0,0 UV-I 0 W/m 6,6 C 7,8 C 0,0 km/h (0 Bft)
16.10.2016 02:00 23,6 C 6,8 C 56 % 92 % 1020,8 hPa 0,0 l/m 0,0 km/h (0 Bft) N 0,00 h 0,0 UV-I 0 W/m 5,6 C 6,8 C 0,0 km/h (0 Bft)
16.10.2016 03:00 23,6 C 6,4 C 56 % 94 % 1021,0 hPa 0,0 l/m 0,0 km/h (0 Bft) N 0,00 h 0,0 UV-I 0 W/m 5,5 C 6,4 C 0,0 km/h (0 Bft)
16.10.2016 04:00 23,5 C 6,7 C 57 % 95 % 1021,0 hPa 0,0 l/m 0,0 km/h (0 Bft) N 0,00 h 0,0 UV-I 0 W/m 6,0 C 6,7 C 0,0 km/h (0 Bft)
16.10.2016 05:00 23,4 C 7,2 C 57 % 95 % 1021,1 hPa 0,0 l/m 0,0 km/h (0 Bft) N 0,00 h 0,0 UV-I 0 W/m 6,4 C 7,2 C 0,0 km/h (0 Bft)
16.10.2016 06:00 23,4 C 7,0 C 57 % 95 % 1021,4 hPa 0,0 l/m 0,0 km/h (0 Bft) N 0,00 h 0,0 UV-I 0 W/m 6,3 C 7,0 C 0,0 km/h (0 Bft)
16.10.2016 07:00 23,6 C 5,9 C 58 % 95 % 1021,8 hPa 0,0 l/m 0,0 km/h (0 Bft) N 0,00 h 0,0 UV-I 10 W/m 5,1 C 5,9 C 0,0 km/h (0 Bft)
16.10.2016 08:00 23,8 C 5,4 C 58 % 95 % 1022,5 hPa 0,0 l/m 0,0 km/h (0 Bft) N 0,00 h 0,0 UV-I 39 W/m 4,7 C 5,4 C 0,0 km/h (0 Bft)
16.10.2016 09:00 23,7 C 7,3 C 58 % 96 % 1022,8 hPa 0,0 l/m 0,0 km/h (0 Bft) N 0,07 h 0,6 UV-I 112 W/m 6,8 C 7,3 C 0,0 km/h (0 Bft)
16.10.2016 10:00 23,7 C 11,3 C 57 % 90 % 1023,0 hPa 0,0 l/m 0,0 km/h (0 Bft) N 0,83 h 1,3 UV-I 339 W/m 9,6 C 11,3 C 0,1 km/h (0 Bft)
16.10.2016 11:00 23,8 C 15,7 C 57 % 73 % 1022,9 hPa 0,0 l/m 0,0 km/h (0 Bft) N 1,00 h 2,0 UV-I 472 W/m 10,9 C 15,7 C 0,0 km/h (0 Bft)
16.10.2016 12:00 23,7 C 17,4 C 56 % 65 % 1022,9 hPa 0,0 l/m 0,9 km/h (0 Bft) S 1,00 h 2,4 UV-I 516 W/m 10,7 C 17,4 C 2,4 km/h (1 Bft)
16.10.2016 13:00 23,6 C 17,8 C 56 % 62 % 1022,6 hPa 0,0 l/m 0,9 km/h (0 Bft) S 0,77 h 2,2 UV-I 451 W/m 10,4 C 17,8 C 2,1 km/h (1 Bft)
16.10.2016 14:00 23,5 C 18,3 C 54 % 59 % 1022,3 hPa 0,0 l/m 1,4 km/h (1 Bft) S 1,00 h 2,0 UV-I 484 W/m 10,2 C 18,3 C 3,5 km/h (1 Bft)
16.10.2016 15:00 23,5 C 16,8 C 51 % 63 % 1022,3 hPa 0,0 l/m 0,0 km/h (0 Bft) N 0,42 h 1,1 UV-I 156 W/m 9,7 C 16,8 C 0,1 km/h (0 Bft)
16.10.2016 16:00 23,7 C 16,7 C 51 % 65 % 1022,2 hPa 0,0 l/m 0,5 km/h (0 Bft) O-SO 0,80 h 0,7 UV-I 192 W/m 10,2 C 16,7 C 2,0 km/h (1 Bft)
16.10.2016 17:00 23,8 C 15,6 C 49 % 70 % 1022,2 hPa 0,0 l/m 0,2 km/h (0 Bft) O-SO 0,00 h 0,0 UV-I 52 W/m 10,1 C 15,6 C 0,7 km/h (0 Bft)
16.10.2016 18:00 23,9 C 14,6 C 51 % 73 % 1022,5 hPa 0,0 l/m 0,0 km/h (0 Bft) O-NO 0,00 h 0,0 UV-I 7 W/m 9,8 C 14,6 C 0,4 km/h (0 Bft)
16.10.2016 19:00 24,0 C 12,4 C 52 % 79 % 1023,0 hPa 0,0 l/m 0,3 km/h (0 Bft) O-NO 0,00 h 0,0 UV-I 0 W/m 8,8 C 12,4 C 0,8 km/h (0 Bft)
16.10.2016 20:00 23,9 C 10,1 C 52 % 84 % 1023,2 hPa 0,0 l/m 1,1 km/h (1 Bft) O-NO 0,00 h 0,0 UV-I 0 W/m 7,5 C 10,1 C 3,3 km/h (1 Bft)
16.10.2016 21:00 24,1 C 8,6 C 53 % 87 % 1023,4 hPa 0,0 l/m 0,6 km/h (0 Bft) O-NO 0,00 h 0,0 UV-I 0 W/m 6,5 C 8,6 C 2,7 km/h (1 Bft)
16.10.2016 22:00 24,0 C 7,7 C 52 % 90 % 1023,7 hPa 0,0 l/m 1,4 km/h (1 Bft) O-NO 0,00 h 0,0 UV-I 0 W/m 6,2 C 7,7 C 3,8 km/h (1 Bft)
16.10.2016 23:00 23,7 C 8,4 C 52 % 94 % 1023,9 hPa 0,0 l/m 2,6 km/h (1 Bft) O-NO 0,00 h 0,0 UV-I 0 W/m 7,4 C 8,4 C 6,0 km/h (2 Bft)
Min-Datum _ 13.10.16 10.10.16 13.10.16 16.10.16 15.10.16 - 10.10.16 - - - - 10.10.16 10.10.16 10.10.16
_ Min-Zeit 11:49 07:19 11:39 14:37 00:49 - 00:00 - - - - 07:19 07:19 00:00
Minimum _ 22,1 C -1,8 C 45 % 56 % 1008,3 hPa - 0,0 km/h (0 Bft) - - - - -2,6 C -1,8 C 0,0 km/h (0 Bft)
Max-Datum _ 15.10.16 16.10.16 13.10.16 10.10.16 10.10.16 11.10.16 14.10.16 - 11.10.16 14.10.16 15.10.16 15.10.16 16.10.16 14.10.16
_ Max-Zeit 20:58 14:12 06:47 09:22 01:05 17:01 19:25 - 11:43 13:24 13:12 13:52 14:12 19:24
Maximum _ 24,4 C 18,8 C 59 % 97 % 1025,2 hPa 0,8 l/m 20,9 km/h
O (4 Bft)
- 0,08 h 2,9 UV-I 691 W/m 12,1 C 18,8 C 35,4 km/h
O-NO (5 Bft)
Durchschnitt _ 23,4 C 7,0 C 54 % 88 % 1018,2 hPa #1,6 l/m 2,2 km/h (1 Bft) O-NO #24:03 h 1,1 UV-I 134 W/m 5,0 C 6,7 C 4,6 km/h (1 Bft)